sensor_id;sensor_type;location;lat;lon;timestamp;P1;durP1;ratioP1;P2;durP2;ratioP2
43793;SDS011;29414;44.798;20.366;2024-01-06T00:00:42;8.60;;;4.90;;
43793;SDS011;29414;44.798;20.366;2024-01-06T00:04:43;6.77;;;4.70;;
43793;SDS011;29414;44.798;20.366;2024-01-06T00:08:43;6.60;;;4.17;;
43793;SDS011;29414;44.798;20.366;2024-01-06T00:12:43;7.43;;;4.30;;
43793;SDS011;29414;44.798;20.366;2024-01-06T00:16:44;6.80;;;4.37;;
43793;SDS011;29414;44.798;20.366;2024-01-06T00:20:44;6.37;;;4.63;;
43793;SDS011;29414;44.798;20.366;2024-01-06T00:24:44;9.80;;;4.80;;
43793;SDS011;29414;44.798;20.366;2024-01-06T00:28:45;7.37;;;4.67;;
43793;SDS011;29414;44.798;20.366;2024-01-06T00:32:47;7.63;;;5.20;;
43793;SDS011;29414;44.798;20.366;2024-01-06T00:36:47;8.67;;;4.40;;
43793;SDS011;29414;44.798;20.366;2024-01-06T00:40:48;7.77;;;5.13;;
43793;SDS011;29414;44.798;20.366;2024-01-06T00:44:48;12.40;;;4.80;;
43793;SDS011;29414;44.798;20.366;2024-01-06T00:48:48;7.60;;;4.67;;
43793;SDS011;29414;44.798;20.366;2024-01-06T00:52:48;8.87;;;4.07;;
43793;SDS011;29414;44.798;20.366;2024-01-06T00:56:52;6.07;;;3.93;;
43793;SDS011;29414;44.798;20.366;2024-01-06T01:00:52;5.53;;;3.63;;
43793;SDS011;29414;44.798;20.366;2024-01-06T01:04:52;5.33;;;2.90;;
43793;SDS011;29414;44.798;20.366;2024-01-06T01:08:53;4.30;;;3.17;;
43793;SDS011;29414;44.798;20.366;2024-01-06T01:12:53;5.63;;;3.20;;
43793;SDS011;29414;44.798;20.366;2024-01-06T01:16:53;4.63;;;3.20;;
43793;SDS011;29414;44.798;20.366;2024-01-06T01:20:54;9.27;;;3.03;;
43793;SDS011;29414;44.798;20.366;2024-01-06T01:24:54;6.87;;;3.13;;
43793;SDS011;29414;44.798;20.366;2024-01-06T01:28:55;5.23;;;3.33;;
43793;SDS011;29414;44.798;20.366;2024-01-06T01:32:55;5.97;;;2.80;;
43793;SDS011;29414;44.798;20.366;2024-01-06T01:36:56;5.93;;;3.03;;
43793;SDS011;29414;44.798;20.366;2024-01-06T01:40:56;4.70;;;2.70;;
43793;SDS011;29414;44.798;20.366;2024-01-06T01:44:56;3.77;;;3.00;;
43793;SDS011;29414;44.798;20.366;2024-01-06T01:48:57;6.60;;;2.97;;
43793;SDS011;29414;44.798;20.366;2024-01-06T01:52:57;4.63;;;2.97;;
43793;SDS011;29414;44.798;20.366;2024-01-06T01:56:58;5.00;;;2.83;;
43793;SDS011;29414;44.798;20.366;2024-01-06T02:00:58;6.10;;;2.57;;
43793;SDS011;29414;44.798;20.366;2024-01-06T02:04:59;5.33;;;2.80;;
43793;SDS011;29414;44.798;20.366;2024-01-06T02:08:59;4.80;;;2.37;;
43793;SDS011;29414;44.798;20.366;2024-01-06T02:13:12;4.13;;;2.67;;
43793;SDS011;29414;44.798;20.366;2024-01-06T02:17:12;5.63;;;2.10;;
43793;SDS011;29414;44.798;20.366;2024-01-06T02:21:12;3.53;;;1.90;;
43793;SDS011;29414;44.798;20.366;2024-01-06T02:25:13;5.03;;;2.23;;
43793;SDS011;29414;44.798;20.366;2024-01-06T02:29:13;6.70;;;2.10;;
43793;SDS011;29414;44.798;20.366;2024-01-06T02:33:14;3.37;;;2.43;;
43793;SDS011;29414;44.798;20.366;2024-01-06T02:37:14;2.40;;;1.87;;
43793;SDS011;29414;44.798;20.366;2024-01-06T02:41:14;4.20;;;2.73;;
43793;SDS011;29414;44.798;20.366;2024-01-06T02:45:15;4.27;;;2.77;;
43793;SDS011;29414;44.798;20.366;2024-01-06T02:49:15;3.93;;;2.10;;
43793;SDS011;29414;44.798;20.366;2024-01-06T02:53:15;2.97;;;2.00;;
43793;SDS011;29414;44.798;20.366;2024-01-06T02:57:15;3.07;;;1.80;;
43793;SDS011;29414;44.798;20.366;2024-01-06T03:01:16;3.13;;;1.87;;
43793;SDS011;29414;44.798;20.366;2024-01-06T03:05:17;3.93;;;2.13;;
43793;SDS011;29414;44.798;20.366;2024-01-06T03:09:17;3.57;;;2.30;;
43793;SDS011;29414;44.798;20.366;2024-01-06T03:13:19;5.33;;;2.20;;
43793;SDS011;29414;44.798;20.366;2024-01-06T03:17:19;3.50;;;2.20;;
43793;SDS011;29414;44.798;20.366;2024-01-06T03:21:20;4.93;;;2.23;;
43793;SDS011;29414;44.798;20.366;2024-01-06T03:25:20;3.33;;;2.43;;
43793;SDS011;29414;44.798;20.366;2024-01-06T03:29:20;3.20;;;2.20;;
43793;SDS011;29414;44.798;20.366;2024-01-06T03:33:21;3.00;;;2.00;;
43793;SDS011;29414;44.798;20.366;2024-01-06T03:37:21;3.97;;;2.00;;
43793;SDS011;29414;44.798;20.366;2024-01-06T03:41:22;2.93;;;2.07;;
43793;SDS011;29414;44.798;20.366;2024-01-06T03:45:22;4.57;;;1.83;;
43793;SDS011;29414;44.798;20.366;2024-01-06T03:49:23;5.03;;;2.70;;
43793;SDS011;29414;44.798;20.366;2024-01-06T03:53:24;2.57;;;1.90;;
43793;SDS011;29414;44.798;20.366;2024-01-06T03:57:24;3.30;;;2.37;;
43793;SDS011;29414;44.798;20.366;2024-01-06T04:01:24;3.43;;;2.17;;
43793;SDS011;29414;44.798;20.366;2024-01-06T04:05:25;4.07;;;2.20;;
43793;SDS011;29414;44.798;20.366;2024-01-06T04:09:25;4.60;;;2.20;;
43793;SDS011;29414;44.798;20.366;2024-01-06T04:13:25;4.73;;;2.47;;
43793;SDS011;29414;44.798;20.366;2024-01-06T04:17:25;3.37;;;2.03;;
43793;SDS011;29414;44.798;20.366;2024-01-06T04:21:26;6.17;;;2.47;;
43793;SDS011;29414;44.798;20.366;2024-01-06T04:25:27;5.87;;;2.70;;
43793;SDS011;29414;44.798;20.366;2024-01-06T04:29:27;4.93;;;2.43;;
43793;SDS011;29414;44.798;20.366;2024-01-06T04:33:27;3.90;;;1.87;;
43793;SDS011;29414;44.798;20.366;2024-01-06T04:37:28;2.53;;;2.33;;
43793;SDS011;29414;44.798;20.366;2024-01-06T04:41:28;3.60;;;2.13;;
43793;SDS011;29414;44.798;20.366;2024-01-06T04:45:28;3.33;;;2.03;;
43793;SDS011;29414;44.798;20.366;2024-01-06T04:49:29;2.60;;;2.37;;
43793;SDS011;29414;44.798;20.366;2024-01-06T04:53:29;3.07;;;2.33;;
43793;SDS011;29414;44.798;20.366;2024-01-06T04:57:29;3.60;;;2.50;;
43793;SDS011;29414;44.798;20.366;2024-01-06T05:01:29;3.53;;;1.80;;
43793;SDS011;29414;44.798;20.366;2024-01-06T05:05:30;3.70;;;2.33;;
43793;SDS011;29414;44.798;20.366;2024-01-06T05:09:30;4.33;;;2.20;;
43793;SDS011;29414;44.798;20.366;2024-01-06T05:13:30;8.77;;;2.53;;
43793;SDS011;29414;44.798;20.366;2024-01-06T05:17:31;3.30;;;2.07;;
43793;SDS011;29414;44.798;20.366;2024-01-06T05:21:31;3.77;;;2.67;;
43793;SDS011;29414;44.798;20.366;2024-01-06T05:25:31;7.37;;;2.23;;
43793;SDS011;29414;44.798;20.366;2024-01-06T05:29:32;7.07;;;2.33;;
43793;SDS011;29414;44.798;20.366;2024-01-06T05:33:32;3.57;;;2.03;;
43793;SDS011;29414;44.798;20.366;2024-01-06T05:37:32;5.27;;;2.30;;
43793;SDS011;29414;44.798;20.366;2024-01-06T05:41:39;3.10;;;1.80;;
43793;SDS011;29414;44.798;20.366;2024-01-06T05:45:39;6.07;;;2.63;;
43793;SDS011;29414;44.798;20.366;2024-01-06T05:49:41;3.60;;;2.10;;
43793;SDS011;29414;44.798;20.366;2024-01-06T05:53:43;5.10;;;2.70;;
43793;SDS011;29414;44.798;20.366;2024-01-06T05:57:43;4.60;;;2.37;;
43793;SDS011;29414;44.798;20.366;2024-01-06T06:01:43;4.50;;;2.60;;
43793;SDS011;29414;44.798;20.366;2024-01-06T06:05:44;4.33;;;2.07;;
43793;SDS011;29414;44.798;20.366;2024-01-06T06:09:45;4.60;;;2.37;;
43793;SDS011;29414;44.798;20.366;2024-01-06T06:13:47;2.60;;;1.80;;
43793;SDS011;29414;44.798;20.366;2024-01-06T06:17:47;3.50;;;1.90;;
43793;SDS011;29414;44.798;20.366;2024-01-06T06:21:48;4.77;;;2.40;;
43793;SDS011;29414;44.798;20.366;2024-01-06T06:25:48;4.77;;;2.83;;
43793;SDS011;29414;44.798;20.366;2024-01-06T06:29:48;3.93;;;2.23;;
43793;SDS011;29414;44.798;20.366;2024-01-06T06:33:48;5.30;;;2.77;;
43793;SDS011;29414;44.798;20.366;2024-01-06T06:37:49;3.60;;;2.30;;
43793;SDS011;29414;44.798;20.366;2024-01-06T06:41:49;4.53;;;2.40;;
43793;SDS011;29414;44.798;20.366;2024-01-06T06:45:49;4.37;;;2.60;;
43793;SDS011;29414;44.798;20.366;2024-01-06T06:49:50;4.73;;;2.73;;
43793;SDS011;29414;44.798;20.366;2024-01-06T06:53:50;4.90;;;2.90;;
43793;SDS011;29414;44.798;20.366;2024-01-06T06:57:51;4.03;;;2.93;;
43793;SDS011;29414;44.798;20.366;2024-01-06T07:01:51;3.87;;;2.33;;
43793;SDS011;29414;44.798;20.366;2024-01-06T07:05:51;6.60;;;2.67;;
43793;SDS011;29414;44.798;20.366;2024-01-06T07:09:51;4.00;;;2.53;;
43793;SDS011;29414;44.798;20.366;2024-01-06T07:13:52;4.20;;;2.50;;
43793;SDS011;29414;44.798;20.366;2024-01-06T07:17:52;4.03;;;2.80;;
43793;SDS011;29414;44.798;20.366;2024-01-06T07:21:52;4.77;;;3.00;;
43793;SDS011;29414;44.798;20.366;2024-01-06T07:25:52;3.86;;;2.80;;
43793;SDS011;29414;44.798;20.366;2024-01-06T07:29:53;5.20;;;3.17;;
43793;SDS011;29414;44.798;20.366;2024-01-06T07:33:53;3.47;;;2.77;;
43793;SDS011;29414;44.798;20.366;2024-01-06T07:37:54;5.03;;;3.00;;
43793;SDS011;29414;44.798;20.366;2024-01-06T07:41:54;6.70;;;2.83;;
43793;SDS011;29414;44.798;20.366;2024-01-06T07:45:54;6.73;;;2.93;;
43793;SDS011;29414;44.798;20.366;2024-01-06T07:49:54;8.73;;;3.30;;
43793;SDS011;29414;44.798;20.366;2024-01-06T07:53:57;4.00;;;3.03;;
43793;SDS011;29414;44.798;20.366;2024-01-06T07:57:58;4.43;;;2.13;;
43793;SDS011;29414;44.798;20.366;2024-01-06T08:01:58;4.30;;;3.03;;
43793;SDS011;29414;44.798;20.366;2024-01-06T08:05:58;5.37;;;3.20;;
43793;SDS011;29414;44.798;20.366;2024-01-06T08:09:59;3.33;;;2.43;;
43793;SDS011;29414;44.798;20.366;2024-01-06T08:13:59;8.27;;;3.30;;
43793;SDS011;29414;44.798;20.366;2024-01-06T08:17:59;5.23;;;3.20;;
43793;SDS011;29414;44.798;20.366;2024-01-06T08:22:00;5.77;;;3.20;;
43793;SDS011;29414;44.798;20.366;2024-01-06T08:26:00;5.07;;;3.37;;
43793;SDS011;29414;44.798;20.366;2024-01-06T08:30:01;7.33;;;3.93;;
43793;SDS011;29414;44.798;20.366;2024-01-06T08:34:01;4.13;;;3.30;;
43793;SDS011;29414;44.798;20.366;2024-01-06T08:38:01;6.33;;;3.50;;
43793;SDS011;29414;44.798;20.366;2024-01-06T08:42:02;7.50;;;4.20;;
43793;SDS011;29414;44.798;20.366;2024-01-06T08:46:02;5.13;;;3.70;;
43793;SDS011;29414;44.798;20.366;2024-01-06T08:50:02;6.93;;;3.97;;
43793;SDS011;29414;44.798;20.366;2024-01-06T08:54:04;7.17;;;4.47;;
43793;SDS011;29414;44.798;20.366;2024-01-06T08:58:07;6.47;;;3.87;;
43793;SDS011;29414;44.798;20.366;2024-01-06T09:02:07;6.17;;;3.77;;
43793;SDS011;29414;44.798;20.366;2024-01-06T09:06:07;4.30;;;3.27;;
43793;SDS011;29414;44.798;20.366;2024-01-06T09:10:08;6.67;;;4.13;;
43793;SDS011;29414;44.798;20.366;2024-01-06T09:14:09;7.73;;;3.50;;
43793;SDS011;29414;44.798;20.366;2024-01-06T09:18:12;7.03;;;4.13;;
43793;SDS011;29414;44.798;20.366;2024-01-06T09:22:13;4.77;;;3.90;;
43793;SDS011;29414;44.798;20.366;2024-01-06T09:26:13;5.53;;;4.03;;
43793;SDS011;29414;44.798;20.366;2024-01-06T09:30:13;6.80;;;4.40;;
43793;SDS011;29414;44.798;20.366;2024-01-06T09:34:14;7.83;;;4.30;;
43793;SDS011;29414;44.798;20.366;2024-01-06T09:38:14;5.83;;;4.47;;
43793;SDS011;29414;44.798;20.366;2024-01-06T09:42:14;8.47;;;4.03;;
43793;SDS011;29414;44.798;20.366;2024-01-06T09:46:24;9.33;;;4.43;;
43793;SDS011;29414;44.798;20.366;2024-01-06T09:50:27;6.63;;;4.50;;
43793;SDS011;29414;44.798;20.366;2024-01-06T09:54:29;6.83;;;4.33;;
43793;SDS011;29414;44.798;20.366;2024-01-06T09:58:33;4.57;;;3.63;;
43793;SDS011;29414;44.798;20.366;2024-01-06T10:02:34;7.43;;;4.67;;
43793;SDS011;29414;44.798;20.366;2024-01-06T10:06:34;6.63;;;4.50;;
43793;SDS011;29414;44.798;20.366;2024-01-06T10:10:35;6.70;;;4.00;;
43793;SDS011;29414;44.798;20.366;2024-01-06T10:14:37;7.27;;;4.43;;
43793;SDS011;29414;44.798;20.366;2024-01-06T10:18:38;5.93;;;3.77;;
43793;SDS011;29414;44.798;20.366;2024-01-06T10:22:42;6.37;;;3.80;;
43793;SDS011;29414;44.798;20.366;2024-01-06T10:26:42;6.77;;;3.73;;
43793;SDS011;29414;44.798;20.366;2024-01-06T10:30:42;6.03;;;3.70;;
43793;SDS011;29414;44.798;20.366;2024-01-06T10:34:43;6.33;;;3.57;;
43793;SDS011;29414;44.798;20.366;2024-01-06T10:38:44;5.67;;;4.10;;
43793;SDS011;29414;44.798;20.366;2024-01-06T10:42:45;7.27;;;3.67;;
43793;SDS011;29414;44.798;20.366;2024-01-06T10:46:45;7.33;;;3.50;;
43793;SDS011;29414;44.798;20.366;2024-01-06T10:50:47;5.10;;;3.40;;
43793;SDS011;29414;44.798;20.366;2024-01-06T10:54:47;5.30;;;3.47;;
43793;SDS011;29414;44.798;20.366;2024-01-06T10:58:51;5.27;;;3.70;;
43793;SDS011;29414;44.798;20.366;2024-01-06T11:02:53;7.40;;;3.80;;
43793;SDS011;29414;44.798;20.366;2024-01-06T11:06:54;6.77;;;3.73;;
43793;SDS011;29414;44.798;20.366;2024-01-06T11:10:54;6.80;;;4.03;;
43793;SDS011;29414;44.798;20.366;2024-01-06T11:14:54;7.70;;;4.77;;
43793;SDS011;29414;44.798;20.366;2024-01-06T11:18:55;10.00;;;5.07;;
43793;SDS011;29414;44.798;20.366;2024-01-06T11:22:55;7.10;;;4.40;;
43793;SDS011;29414;44.798;20.366;2024-01-06T11:27:19;8.43;;;4.60;;
43793;SDS011;29414;44.798;20.366;2024-01-06T11:31:21;5.27;;;4.10;;
43793;SDS011;29414;44.798;20.366;2024-01-06T11:35:22;5.93;;;4.57;;
43793;SDS011;29414;44.798;20.366;2024-01-06T11:39:42;9.83;;;4.83;;
43793;SDS011;29414;44.798;20.366;2024-01-06T11:43:42;8.97;;;4.93;;
43793;SDS011;29414;44.798;20.366;2024-01-06T11:47:47;8.10;;;4.33;;
43793;SDS011;29414;44.798;20.366;2024-01-06T11:51:47;10.17;;;4.73;;
43793;SDS011;29414;44.798;20.366;2024-01-06T11:55:50;9.27;;;5.07;;
43793;SDS011;29414;44.798;20.366;2024-01-06T11:59:51;7.87;;;4.97;;
43793;SDS011;29414;44.798;20.366;2024-01-06T12:03:55;8.95;;;4.72;;
43793;SDS011;29414;44.798;20.366;2024-01-06T12:07:57;6.63;;;4.70;;
43793;SDS011;29414;44.798;20.366;2024-01-06T12:12:01;5.57;;;4.27;;
43793;SDS011;29414;44.798;20.366;2024-01-06T12:16:01;8.87;;;5.03;;
43793;SDS011;29414;44.798;20.366;2024-01-06T12:20:02;6.80;;;4.33;;
43793;SDS011;29414;44.798;20.366;2024-01-06T12:24:18;7.77;;;4.53;;
43793;SDS011;29414;44.798;20.366;2024-01-06T12:28:20;8.80;;;4.73;;
43793;SDS011;29414;44.798;20.366;2024-01-06T12:32:24;8.90;;;6.07;;
43793;SDS011;29414;44.798;20.366;2024-01-06T12:36:25;6.60;;;5.22;;
43793;SDS011;29414;44.798;20.366;2024-01-06T12:40:25;8.03;;;5.93;;
43793;SDS011;29414;44.798;20.366;2024-01-06T12:44:26;13.47;;;7.30;;
43793;SDS011;29414;44.798;20.366;2024-01-06T12:48:27;12.90;;;7.93;;
43793;SDS011;29414;44.798;20.366;2024-01-06T12:52:29;6.97;;;5.67;;
43793;SDS011;29414;44.798;20.366;2024-01-06T12:56:29;10.00;;;5.73;;
43793;SDS011;29414;44.798;20.366;2024-01-06T13:00:30;9.33;;;6.10;;
43793;SDS011;29414;44.798;20.366;2024-01-06T13:04:30;8.10;;;5.60;;
43793;SDS011;29414;44.798;20.366;2024-01-06T13:08:30;8.67;;;6.53;;
43793;SDS011;29414;44.798;20.366;2024-01-06T13:12:30;8.23;;;5.70;;
43793;SDS011;29414;44.798;20.366;2024-01-06T13:16:31;10.70;;;6.53;;
43793;SDS011;29414;44.798;20.366;2024-01-06T13:20:31;9.70;;;6.77;;
43793;SDS011;29414;44.798;20.366;2024-01-06T13:24:32;10.23;;;7.13;;
43793;SDS011;29414;44.798;20.366;2024-01-06T13:28:32;14.65;;;8.65;;
43793;SDS011;29414;44.798;20.366;2024-01-06T13:32:32;13.77;;;7.10;;
43793;SDS011;29414;44.798;20.366;2024-01-06T13:36:32;9.20;;;7.22;;
43793;SDS011;29414;44.798;20.366;2024-01-06T13:40:33;9.23;;;6.07;;
43793;SDS011;29414;44.798;20.366;2024-01-06T13:44:33;9.73;;;6.70;;
43793;SDS011;29414;44.798;20.366;2024-01-06T13:48:33;10.07;;;6.95;;
43793;SDS011;29414;44.798;20.366;2024-01-06T13:52:34;6.93;;;5.60;;
43793;SDS011;29414;44.798;20.366;2024-01-06T13:56:35;11.18;;;5.78;;
43793;SDS011;29414;44.798;20.366;2024-01-06T14:00:37;8.93;;;6.22;;
43793;SDS011;29414;44.798;20.366;2024-01-06T14:04:37;10.50;;;5.67;;
43793;SDS011;29414;44.798;20.366;2024-01-06T14:08:37;10.23;;;6.25;;
43793;SDS011;29414;44.798;20.366;2024-01-06T14:12:39;11.52;;;6.60;;
43793;SDS011;29414;44.798;20.366;2024-01-06T14:16:40;7.95;;;6.20;;
43793;SDS011;29414;44.798;20.366;2024-01-06T14:20:40;8.07;;;5.28;;
43793;SDS011;29414;44.798;20.366;2024-01-06T14:24:41;10.45;;;6.32;;
43793;SDS011;29414;44.798;20.366;2024-01-06T14:28:41;8.75;;;5.55;;
43793;SDS011;29414;44.798;20.366;2024-01-06T14:32:41;6.93;;;5.88;;
43793;SDS011;29414;44.798;20.366;2024-01-06T14:36:42;7.10;;;5.40;;
43793;SDS011;29414;44.798;20.366;2024-01-06T14:40:47;7.95;;;5.80;;
43793;SDS011;29414;44.798;20.366;2024-01-06T14:44:48;7.38;;;5.38;;
43793;SDS011;29414;44.798;20.366;2024-01-06T14:48:48;9.25;;;5.45;;
43793;SDS011;29414;44.798;20.366;2024-01-06T14:52:48;8.68;;;5.22;;
43793;SDS011;29414;44.798;20.366;2024-01-06T14:56:49;8.82;;;5.68;;
43793;SDS011;29414;44.798;20.366;2024-01-06T15:00:50;9.30;;;5.57;;
43793;SDS011;29414;44.798;20.366;2024-01-06T15:04:50;6.53;;;4.88;;
43793;SDS011;29414;44.798;20.366;2024-01-06T15:08:50;7.47;;;5.00;;
43793;SDS011;29414;44.798;20.366;2024-01-06T15:12:51;9.83;;;5.10;;
43793;SDS011;29414;44.798;20.366;2024-01-06T15:16:51;6.67;;;4.43;;
43793;SDS011;29414;44.798;20.366;2024-01-06T15:20:51;9.17;;;5.37;;
43793;SDS011;29414;44.798;20.366;2024-01-06T15:24:51;9.20;;;5.43;;
43793;SDS011;29414;44.798;20.366;2024-01-06T15:28:52;8.43;;;6.53;;
43793;SDS011;29414;44.798;20.366;2024-01-06T15:32:56;7.13;;;5.75;;
43793;SDS011;29414;44.798;20.366;2024-01-06T15:36:56;6.70;;;5.10;;
43793;SDS011;29414;44.798;20.366;2024-01-06T15:40:56;7.57;;;5.75;;
43793;SDS011;29414;44.798;20.366;2024-01-06T15:44:57;9.10;;;6.20;;
43793;SDS011;29414;44.798;20.366;2024-01-06T15:48:57;8.35;;;5.80;;
43793;SDS011;29414;44.798;20.366;2024-01-06T15:52:57;8.77;;;5.20;;
43793;SDS011;29414;44.798;20.366;2024-01-06T15:56:58;7.82;;;5.30;;
43793;SDS011;29414;44.798;20.366;2024-01-06T16:00:58;9.73;;;5.53;;
43793;SDS011;29414;44.798;20.366;2024-01-06T16:04:58;8.50;;;5.67;;
43793;SDS011;29414;44.798;20.366;2024-01-06T16:08:59;8.38;;;6.25;;
43793;SDS011;29414;44.798;20.366;2024-01-06T16:12:59;8.53;;;5.73;;
43793;SDS011;29414;44.798;20.366;2024-01-06T16:16:59;11.33;;;6.53;;
43793;SDS011;29414;44.798;20.366;2024-01-06T16:21:00;12.40;;;6.70;;
43793;SDS011;29414;44.798;20.366;2024-01-06T16:25:02;7.93;;;5.80;;
43793;SDS011;29414;44.798;20.366;2024-01-06T16:29:02;10.47;;;6.50;;
43793;SDS011;29414;44.798;20.366;2024-01-06T16:33:03;10.17;;;6.77;;
43793;SDS011;29414;44.798;20.366;2024-01-06T16:37:03;11.07;;;6.17;;
43793;SDS011;29414;44.798;20.366;2024-01-06T16:41:04;9.20;;;6.30;;
43793;SDS011;29414;44.798;20.366;2024-01-06T16:45:04;10.97;;;6.93;;
43793;SDS011;29414;44.798;20.366;2024-01-06T16:49:04;8.60;;;6.73;;
43793;SDS011;29414;44.798;20.366;2024-01-06T16:53:05;7.90;;;6.40;;
43793;SDS011;29414;44.798;20.366;2024-01-06T16:57:05;9.27;;;6.65;;
43793;SDS011;29414;44.798;20.366;2024-01-06T17:01:05;10.60;;;7.50;;
43793;SDS011;29414;44.798;20.366;2024-01-06T17:05:06;12.33;;;7.03;;
43793;SDS011;29414;44.798;20.366;2024-01-06T17:09:08;11.63;;;8.07;;
43793;SDS011;29414;44.798;20.366;2024-01-06T17:13:08;11.33;;;7.23;;
43793;SDS011;29414;44.798;20.366;2024-01-06T17:17:09;9.20;;;7.07;;
43793;SDS011;29414;44.798;20.366;2024-01-06T17:21:09;8.23;;;6.57;;
43793;SDS011;29414;44.798;20.366;2024-01-06T17:25:14;14.47;;;7.63;;
43793;SDS011;29414;44.798;20.366;2024-01-06T17:29:15;9.63;;;6.70;;
43793;SDS011;29414;44.798;20.366;2024-01-06T17:33:15;11.37;;;7.00;;
43793;SDS011;29414;44.798;20.366;2024-01-06T17:37:15;11.20;;;6.27;;
43793;SDS011;29414;44.798;20.366;2024-01-06T17:41:16;10.47;;;6.30;;
43793;SDS011;29414;44.798;20.366;2024-01-06T17:45:16;9.60;;;5.53;;
43793;SDS011;29414;44.798;20.366;2024-01-06T17:49:16;7.93;;;4.97;;
43793;SDS011;29414;44.798;20.366;2024-01-06T17:53:16;11.07;;;5.47;;
43793;SDS011;29414;44.798;20.366;2024-01-06T17:57:17;8.33;;;4.83;;
43793;SDS011;29414;44.798;20.366;2024-01-06T18:01:17;6.03;;;4.47;;
43793;SDS011;29414;44.798;20.366;2024-01-06T18:05:18;6.40;;;4.22;;
43793;SDS011;29414;44.798;20.366;2024-01-06T18:09:18;12.38;;;4.88;;
43793;SDS011;29414;44.798;20.366;2024-01-06T18:13:19;9.15;;;4.55;;
43793;SDS011;29414;44.798;20.366;2024-01-06T18:17:19;5.97;;;4.03;;
43793;SDS011;29414;44.798;20.366;2024-01-06T18:21:19;5.63;;;3.72;;
43793;SDS011;29414;44.798;20.366;2024-01-06T18:25:21;8.73;;;4.87;;
43793;SDS011;29414;44.798;20.366;2024-01-06T18:29:21;5.63;;;4.05;;
43793;SDS011;29414;44.798;20.366;2024-01-06T18:33:22;10.37;;;4.43;;
43793;SDS011;29414;44.798;20.366;2024-01-06T18:37:23;7.53;;;5.20;;
43793;SDS011;29414;44.798;20.366;2024-01-06T18:41:23;5.80;;;4.47;;
43793;SDS011;29414;44.798;20.366;2024-01-06T18:45:23;9.50;;;4.63;;
43793;SDS011;29414;44.798;20.366;2024-01-06T18:49:26;7.35;;;4.43;;
43793;SDS011;29414;44.798;20.366;2024-01-06T18:53:27;5.65;;;3.97;;
43793;SDS011;29414;44.798;20.366;2024-01-06T18:57:28;9.50;;;5.00;;
43793;SDS011;29414;44.798;20.366;2024-01-06T19:01:28;7.05;;;4.93;;
43793;SDS011;29414;44.798;20.366;2024-01-06T19:05:29;7.95;;;5.22;;
43793;SDS011;29414;44.798;20.366;2024-01-06T19:09:31;8.63;;;5.03;;
43793;SDS011;29414;44.798;20.366;2024-01-06T19:13:34;8.00;;;5.50;;
43793;SDS011;29414;44.798;20.366;2024-01-06T19:17:34;7.57;;;4.85;;
43793;SDS011;29414;44.798;20.366;2024-01-06T19:21:34;13.52;;;5.75;;
43793;SDS011;29414;44.798;20.366;2024-01-06T19:25:34;9.15;;;5.50;;
43793;SDS011;29414;44.798;20.366;2024-01-06T19:29:35;8.95;;;4.63;;
43793;SDS011;29414;44.798;20.366;2024-01-06T19:33:35;7.20;;;5.15;;
43793;SDS011;29414;44.798;20.366;2024-01-06T19:37:36;9.82;;;6.20;;
43793;SDS011;29414;44.798;20.366;2024-01-06T19:41:36;9.68;;;5.90;;
43793;SDS011;29414;44.798;20.366;2024-01-06T19:45:36;9.55;;;5.97;;
43793;SDS011;29414;44.798;20.366;2024-01-06T19:49:36;10.44;;;6.36;;
43793;SDS011;29414;44.798;20.366;2024-01-06T19:53:37;8.48;;;5.78;;
43793;SDS011;29414;44.798;20.366;2024-01-06T19:57:37;8.73;;;6.20;;
43793;SDS011;29414;44.798;20.366;2024-01-06T20:01:37;9.88;;;6.20;;
43793;SDS011;29414;44.798;20.366;2024-01-06T20:05:37;11.55;;;7.57;;
43793;SDS011;29414;44.798;20.366;2024-01-06T20:09:38;12.10;;;6.70;;
43793;SDS011;29414;44.798;20.366;2024-01-06T20:13:38;8.70;;;6.25;;
43793;SDS011;29414;44.798;20.366;2024-01-06T20:17:38;8.93;;;7.20;;
43793;SDS011;29414;44.798;20.366;2024-01-06T20:21:38;9.05;;;5.75;;
43793;SDS011;29414;44.798;20.366;2024-01-06T20:25:39;8.05;;;5.72;;
43793;SDS011;29414;44.798;20.366;2024-01-06T20:29:42;10.85;;;6.45;;
43793;SDS011;29414;44.798;20.366;2024-01-06T20:33:42;9.75;;;6.72;;
43793;SDS011;29414;44.798;20.366;2024-01-06T20:37:44;8.50;;;6.32;;
43793;SDS011;29414;44.798;20.366;2024-01-06T20:41:45;10.48;;;7.00;;
43793;SDS011;29414;44.798;20.366;2024-01-06T20:45:45;10.15;;;7.88;;
43793;SDS011;29414;44.798;20.366;2024-01-06T20:49:48;13.03;;;7.73;;
43793;SDS011;29414;44.798;20.366;2024-01-06T20:53:49;12.50;;;7.93;;
43793;SDS011;29414;44.798;20.366;2024-01-06T20:57:49;10.90;;;7.70;;
43793;SDS011;29414;44.798;20.366;2024-01-06T21:01:49;12.10;;;8.03;;
43793;SDS011;29414;44.798;20.366;2024-01-06T21:05:50;13.00;;;8.10;;
43793;SDS011;29414;44.798;20.366;2024-01-06T21:09:51;9.63;;;7.03;;
43793;SDS011;29414;44.798;20.366;2024-01-06T21:13:51;8.87;;;7.43;;
43793;SDS011;29414;44.798;20.366;2024-01-06T21:17:51;11.70;;;6.77;;
43793;SDS011;29414;44.798;20.366;2024-01-06T21:21:52;9.57;;;6.77;;
43793;SDS011;29414;44.798;20.366;2024-01-06T21:25:52;11.83;;;6.83;;
43793;SDS011;29414;44.798;20.366;2024-01-06T21:29:52;10.00;;;7.03;;
43793;SDS011;29414;44.798;20.366;2024-01-06T21:33:53;11.07;;;7.07;;
43793;SDS011;29414;44.798;20.366;2024-01-06T21:37:53;9.40;;;6.70;;
43793;SDS011;29414;44.798;20.366;2024-01-06T21:41:53;9.33;;;6.93;;
43793;SDS011;29414;44.798;20.366;2024-01-06T21:45:53;8.83;;;6.70;;
43793;SDS011;29414;44.798;20.366;2024-01-06T21:49:54;9.07;;;6.33;;
43793;SDS011;29414;44.798;20.366;2024-01-06T21:53:55;12.53;;;6.93;;
43793;SDS011;29414;44.798;20.366;2024-01-06T21:57:56;13.03;;;6.77;;
43793;SDS011;29414;44.798;20.366;2024-01-06T22:01:56;8.60;;;6.50;;
43793;SDS011;29414;44.798;20.366;2024-01-06T22:05:56;9.47;;;5.97;;
43793;SDS011;29414;44.798;20.366;2024-01-06T22:09:57;11.30;;;6.20;;
43793;SDS011;29414;44.798;20.366;2024-01-06T22:13:57;8.90;;;6.00;;
43793;SDS011;29414;44.798;20.366;2024-01-06T22:17:57;9.20;;;5.87;;
43793;SDS011;29414;44.798;20.366;2024-01-06T22:21:58;10.50;;;5.77;;
43793;SDS011;29414;44.798;20.366;2024-01-06T22:25:58;8.70;;;5.50;;
43793;SDS011;29414;44.798;20.366;2024-01-06T22:29:58;10.97;;;5.83;;
43793;SDS011;29414;44.798;20.366;2024-01-06T22:33:58;8.27;;;5.77;;
43793;SDS011;29414;44.798;20.366;2024-01-06T22:37:59;8.07;;;5.37;;
43793;SDS011;29414;44.798;20.366;2024-01-06T22:41:59;9.03;;;6.07;;
43793;SDS011;29414;44.798;20.366;2024-01-06T22:45:59;8.70;;;5.50;;
43793;SDS011;29414;44.798;20.366;2024-01-06T22:49:59;8.90;;;5.97;;
43793;SDS011;29414;44.798;20.366;2024-01-06T22:54:00;9.67;;;5.07;;
43793;SDS011;29414;44.798;20.366;2024-01-06T22:58:00;8.93;;;5.00;;
43793;SDS011;29414;44.798;20.366;2024-01-06T23:02:00;7.03;;;4.53;;
43793;SDS011;29414;44.798;20.366;2024-01-06T23:06:01;6.93;;;5.50;;
43793;SDS011;29414;44.798;20.366;2024-01-06T23:10:01;11.00;;;5.73;;
43793;SDS011;29414;44.798;20.366;2024-01-06T23:14:01;9.60;;;6.47;;
43793;SDS011;29414;44.798;20.366;2024-01-06T23:18:02;9.37;;;6.07;;
43793;SDS011;29414;44.798;20.366;2024-01-06T23:22:02;11.30;;;8.63;;
43793;SDS011;29414;44.798;20.366;2024-01-06T23:26:03;11.43;;;7.40;;
43793;SDS011;29414;44.798;20.366;2024-01-06T23:30:03;9.07;;;6.43;;
43793;SDS011;29414;44.798;20.366;2024-01-06T23:34:04;10.80;;;8.00;;
43793;SDS011;29414;44.798;20.366;2024-01-06T23:38:04;11.60;;;7.87;;
43793;SDS011;29414;44.798;20.366;2024-01-06T23:42:05;12.17;;;7.70;;
43793;SDS011;29414;44.798;20.366;2024-01-06T23:46:06;10.23;;;6.57;;